createdAt,value
2022-09-09T00:02:50.630Z,15.80
2022-09-09T00:05:48.228Z,15.72
2022-09-09T00:08:45.694Z,15.70
2022-09-09T00:11:43.483Z,15.60
2022-09-09T00:14:40.915Z,15.60
2022-09-09T00:17:40.681Z,15.50
2022-09-09T00:20:38.138Z,15.50
2022-09-09T00:23:35.585Z,15.40
2022-09-09T00:26:33.015Z,15.40
2022-09-09T00:29:31.147Z,15.30
2022-09-09T00:32:28.606Z,15.30
2022-09-09T00:35:26.359Z,15.20
2022-09-09T00:38:24.656Z,15.10
2022-09-09T00:41:22.147Z,15.06
2022-09-09T00:44:19.875Z,15.00
2022-09-09T00:47:17.308Z,14.92
2022-09-09T00:50:14.745Z,14.90
2022-09-09T00:53:13.483Z,14.80
2022-09-09T00:56:10.927Z,14.80
2022-09-09T00:59:08.339Z,14.80
2022-09-09T01:02:05.807Z,14.80
2022-09-09T01:05:03.286Z,14.80
2022-09-09T01:08:00.716Z,14.80
2022-09-09T01:10:59.049Z,14.80
2022-09-09T01:13:56.514Z,14.80
2022-09-09T01:16:54.003Z,14.80
2022-09-09T01:19:51.479Z,14.80
2022-09-09T01:22:48.929Z,14.80
2022-09-09T01:25:46.366Z,14.80
2022-09-09T01:28:43.808Z,14.80
2022-09-09T01:31:42.065Z,14.76
2022-09-09T01:34:39.506Z,14.80
2022-09-09T01:37:36.956Z,14.72
2022-09-09T01:40:34.460Z,14.74
2022-09-09T01:43:31.882Z,14.72
2022-09-09T01:46:29.415Z,14.76
2022-09-09T01:49:26.887Z,14.80
2022-09-09T01:52:24.329Z,14.80
2022-09-09T01:55:22.561Z,14.80
2022-09-09T01:58:20.000Z,14.80
2022-09-09T02:01:17.487Z,14.80
2022-09-09T02:04:14.989Z,14.80
2022-09-09T02:07:12.459Z,14.74
2022-09-09T02:10:09.891Z,14.70
2022-09-09T02:13:07.341Z,14.70
2022-09-09T02:16:04.801Z,14.60
2022-09-09T02:19:02.232Z,14.60
2022-09-09T02:21:59.777Z,14.50
2022-09-09T02:24:57.218Z,14.50
2022-09-09T02:27:54.671Z,14.40
2022-09-09T02:30:56.439Z,14.40
2022-09-09T02:33:54.033Z,14.30
2022-09-09T02:36:51.506Z,14.30
2022-09-09T02:39:49.016Z,14.20
2022-09-09T02:42:46.483Z,14.20
2022-09-09T02:45:44.920Z,14.14
2022-09-09T02:48:42.683Z,14.10
2022-09-09T02:51:40.252Z,14.10
2022-09-09T02:54:37.712Z,14.10
2022-09-09T02:57:35.167Z,14.04
2022-09-09T03:00:32.603Z,14.00
2022-09-09T03:03:30.181Z,14.00
2022-09-09T03:06:29.074Z,14.00
2022-09-09T03:09:26.996Z,14.00
2022-09-09T03:12:24.422Z,14.00
2022-09-09T03:15:21.861Z,14.00
2022-09-09T03:18:19.314Z,14.08
2022-09-09T03:21:16.795Z,14.10
2022-09-09T03:24:14.403Z,14.10
2022-09-09T03:27:11.841Z,14.10
2022-09-09T03:30:09.375Z,14.10
2022-09-09T03:33:06.817Z,14.10
2022-09-09T03:36:04.248Z,14.10
2022-09-09T03:39:02.135Z,14.10
2022-09-09T03:41:59.596Z,14.18
2022-09-09T03:44:58.892Z,14.18
2022-09-09T03:47:56.353Z,14.10
2022-09-09T03:50:53.784Z,14.10
2022-09-09T03:53:51.472Z,14.10
2022-09-09T03:56:48.883Z,14.10
2022-09-09T03:59:46.329Z,14.08
2022-09-09T04:02:44.697Z,14.02
2022-09-09T04:05:43.493Z,14.00
2022-09-09T04:08:41.349Z,13.98
2022-09-09T04:11:38.900Z,13.90
2022-09-09T04:14:36.563Z,13.84
2022-09-09T04:17:33.995Z,13.80
2022-09-09T04:20:31.449Z,13.70
2022-09-09T04:23:29.959Z,13.70
2022-09-09T04:26:27.392Z,13.60
2022-09-09T04:29:24.830Z,13.60
2022-09-09T04:32:22.286Z,13.50
2022-09-09T04:35:19.777Z,13.50
2022-09-09T04:38:17.203Z,13.40
2022-09-09T04:41:14.681Z,13.40
2022-09-09T04:44:12.309Z,13.40
2022-09-09T04:47:10.753Z,13.30
2022-09-09T04:50:08.192Z,13.30
2022-09-09T04:53:05.986Z,13.30
2022-09-09T04:56:03.463Z,13.30
2022-09-09T04:59:01.334Z,13.30
2022-09-09T05:01:58.824Z,13.30
2022-09-09T05:04:56.290Z,13.30
2022-09-09T05:07:53.694Z,13.30
2022-09-09T05:10:51.123Z,13.20
2022-09-09T05:13:48.564Z,13.26
2022-09-09T05:16:46.014Z,13.20
2022-09-09T05:19:44.241Z,13.26
2022-09-09T05:22:41.674Z,13.30
2022-09-09T05:25:39.129Z,13.30
2022-09-09T05:28:36.689Z,13.40
2022-09-09T05:31:34.373Z,13.40
2022-09-09T05:34:31.893Z,13.50
2022-09-09T05:37:30.734Z,13.60
2022-09-09T05:40:28.178Z,13.70
2022-09-09T05:43:25.617Z,13.80
2022-09-09T05:46:23.435Z,13.90
2022-09-09T05:49:20.889Z,14.00
2022-09-09T05:52:18.392Z,14.10
2022-09-09T05:55:16.783Z,14.20
2022-09-09T05:58:14.200Z,14.30
2022-09-09T06:01:11.994Z,14.40
2022-09-09T06:04:09.801Z,14.50
2022-09-09T06:07:07.230Z,14.60
2022-09-09T06:10:04.646Z,14.70
2022-09-09T06:13:02.090Z,14.80
2022-09-09T06:15:59.588Z,14.90
2022-09-09T06:18:57.512Z,15.20
2022-09-09T06:21:56.012Z,15.60
2022-09-09T06:24:54.782Z,16.02
2022-09-09T06:27:52.266Z,16.50
2022-09-09T06:30:49.732Z,17.04
2022-09-09T06:33:47.175Z,17.70
2022-09-09T06:36:45.247Z,18.36
2022-09-09T06:39:42.755Z,18.60
2022-09-09T06:42:40.315Z,18.70
2022-09-09T06:45:38.271Z,18.76
2022-09-09T06:48:35.871Z,18.80
2022-09-09T06:51:33.589Z,18.70
2022-09-09T06:54:31.076Z,18.60
2022-09-09T06:57:36.835Z,18.60
2022-09-09T07:00:35.387Z,18.70
2022-09-09T07:03:33.177Z,18.80
2022-09-09T07:06:31.002Z,19.00
2022-09-09T07:09:30.734Z,19.42
2022-09-09T07:12:28.151Z,19.70
2022-09-09T07:15:26.064Z,19.58
2022-09-09T07:18:23.520Z,19.50
2022-09-09T07:21:21.996Z,19.60
2022-09-09T07:24:19.511Z,19.88
2022-09-09T07:27:16.940Z,20.00
2022-09-09T07:30:21.056Z,20.30
2022-09-09T07:33:21.447Z,20.60
2022-09-09T07:36:18.933Z,20.80
2022-09-09T07:39:16.385Z,20.94
2022-09-09T07:42:16.362Z,21.50
2022-09-09T07:45:14.083Z,21.98
2022-09-09T07:48:12.003Z,22.70
2022-09-09T07:51:09.566Z,23.08
2022-09-09T07:54:07.040Z,23.06
2022-09-09T07:57:05.405Z,22.80
2022-09-09T08:00:03.391Z,22.60
2022-09-09T08:03:03.279Z,22.60
2022-09-09T08:06:02.600Z,22.42
2022-09-09T08:09:00.254Z,22.40
2022-09-09T08:11:57.969Z,22.40
2022-09-09T08:14:56.071Z,22.30
2022-09-09T08:17:53.617Z,22.30
2022-09-09T08:20:51.074Z,22.30
2022-09-09T08:23:48.541Z,22.50
2022-09-09T08:26:45.997Z,22.98
2022-09-09T08:29:43.425Z,23.56
2022-09-09T08:32:43.400Z,24.00
2022-09-09T08:35:44.264Z,23.82
2022-09-09T08:38:41.695Z,23.80
2022-09-09T08:41:39.163Z,24.10
2022-09-09T08:44:37.139Z,25.02
2022-09-09T08:47:35.848Z,25.60
2022-09-09T08:50:35.020Z,25.90
2022-09-09T08:53:32.459Z,26.30
2022-09-09T08:56:30.614Z,26.60
2022-09-09T08:59:28.194Z,26.70
2022-09-09T09:02:25.734Z,27.20
2022-09-09T09:05:24.258Z,27.44
2022-09-09T09:08:21.702Z,28.24
2022-09-09T09:11:19.147Z,28.88
2022-09-09T09:14:16.994Z,29.20
2022-09-09T09:17:15.755Z,29.10
2022-09-09T09:20:13.601Z,28.90
2022-09-09T09:23:11.050Z,28.64
2022-09-09T09:26:09.332Z,28.20
2022-09-09T09:29:06.782Z,28.20
2022-09-09T09:32:04.335Z,27.90
2022-09-09T09:35:05.118Z,27.46
2022-09-09T09:41:22.439Z,26.58
2022-09-09T09:44:19.885Z,26.10
2022-09-09T09:47:17.320Z,25.92
2022-09-09T09:50:14.749Z,26.00
2022-09-09T09:53:12.185Z,26.16
2022-09-09T09:56:09.621Z,26.56
2022-09-09T09:59:13.358Z,27.34
2022-09-09T10:02:21.133Z,28.06
2022-09-09T10:05:22.000Z,29.48
2022-09-09T10:08:23.407Z,30.26
2022-09-09T10:11:22.228Z,30.30
2022-09-09T10:14:19.654Z,30.02
2022-09-09T10:17:18.280Z,30.08
2022-09-09T10:20:15.897Z,29.80
2022-09-09T10:23:13.337Z,29.70
2022-09-09T10:26:10.811Z,29.60
2022-09-09T10:29:08.516Z,29.24
2022-09-09T10:32:05.979Z,28.98
2022-09-09T10:35:03.408Z,28.70
2022-09-09T10:38:00.851Z,28.42
2022-09-09T10:40:58.310Z,28.30
2022-09-09T10:44:00.293Z,28.44
2022-09-09T10:47:01.896Z,29.24
2022-09-09T10:49:59.489Z,30.60
2022-09-09T10:52:56.931Z,30.80
2022-09-09T10:55:54.617Z,30.50
2022-09-09T10:58:52.028Z,29.88
2022-09-09T11:01:49.480Z,29.40
2022-09-09T11:04:46.945Z,29.00
2022-09-09T11:07:45.048Z,28.72
2022-09-09T11:10:42.581Z,28.50
2022-09-09T11:13:40.014Z,28.40
2022-09-09T11:16:37.501Z,28.30
2022-09-09T11:19:35.418Z,28.10
2022-09-09T11:22:32.824Z,27.90
2022-09-09T11:25:30.259Z,27.80
2022-09-09T11:28:28.126Z,27.80
2022-09-09T11:31:25.928Z,27.60
2022-09-09T11:34:23.529Z,27.40
2022-09-09T11:37:20.994Z,27.34
2022-09-09T11:40:18.422Z,27.28
2022-09-09T11:43:15.857Z,27.20
2022-09-09T11:46:13.555Z,27.22
2022-09-09T11:49:11.003Z,27.52
2022-09-09T11:52:08.454Z,27.70
2022-09-09T11:55:05.919Z,27.64
2022-09-09T11:58:03.346Z,27.60
2022-09-09T12:01:00.773Z,27.50
2022-09-09T12:03:58.223Z,27.48
2022-09-09T12:06:55.689Z,27.52
2022-09-09T12:09:53.855Z,27.86
2022-09-09T12:12:51.267Z,28.66
2022-09-09T12:15:48.714Z,29.50
2022-09-09T12:18:46.965Z,30.20
2022-09-09T12:21:44.410Z,30.64
2022-09-09T12:24:42.833Z,30.40
2022-09-09T12:27:40.280Z,30.08
2022-09-09T12:30:37.766Z,29.70
2022-09-09T12:33:35.253Z,29.30
2022-09-09T12:36:32.780Z,28.90
2022-09-09T12:39:31.241Z,28.60
2022-09-09T12:42:28.744Z,28.12
2022-09-09T12:45:27.097Z,27.78
2022-09-09T12:48:24.532Z,27.50
2022-09-09T12:51:21.971Z,27.40
2022-09-09T12:54:19.667Z,27.22
2022-09-09T12:57:17.134Z,27.10
2022-09-09T13:00:14.735Z,27.00
2022-09-09T13:03:12.156Z,26.72
2022-09-09T13:06:10.016Z,26.60
2022-09-09T13:09:07.459Z,26.40
2022-09-09T13:12:06.415Z,26.20
2022-09-09T13:15:04.064Z,26.00
2022-09-09T13:18:02.016Z,25.90
2022-09-09T13:21:00.043Z,25.78
2022-09-09T13:23:57.493Z,25.60
2022-09-09T13:26:55.618Z,25.50
2022-09-09T13:29:53.079Z,25.34
2022-09-09T13:32:50.539Z,25.20
2022-09-09T13:35:48.464Z,25.08
2022-09-09T13:38:45.892Z,24.90
2022-09-09T13:41:43.314Z,24.80
2022-09-09T13:44:40.803Z,24.60
2022-09-09T13:47:38.263Z,24.50
2022-09-09T13:50:35.969Z,24.40
2022-09-09T13:53:34.304Z,24.30
2022-09-09T13:56:32.967Z,24.20
2022-09-09T13:59:54.061Z,24.10
2022-09-09T14:02:48.154Z,24.00
2022-09-09T14:05:45.590Z,23.90
2022-09-09T14:08:43.022Z,23.80
2022-09-09T14:11:41.688Z,23.60
2022-09-09T14:14:39.120Z,23.36
2022-09-09T14:17:37.304Z,23.10
2022-09-09T14:20:35.038Z,22.90
2022-09-09T14:23:33.458Z,22.70
2022-09-09T14:26:31.325Z,22.50
2022-09-09T14:29:28.781Z,22.40
2022-09-09T14:32:26.538Z,22.20
2022-09-09T14:35:23.958Z,22.10
2022-09-09T14:38:21.388Z,22.00
2022-09-09T14:41:18.915Z,22.00
2022-09-09T14:44:17.121Z,21.90
2022-09-09T14:47:14.716Z,21.80
2022-09-09T14:50:13.545Z,21.80
2022-09-09T14:53:10.989Z,21.80
2022-09-09T14:56:08.431Z,21.78
2022-09-09T14:59:05.846Z,21.70
2022-09-09T15:02:05.535Z,21.68
2022-09-09T15:05:03.203Z,21.60
2022-09-09T15:08:00.866Z,21.60
2022-09-09T15:10:59.068Z,21.50
2022-09-09T15:13:56.578Z,21.50
2022-09-09T15:16:54.024Z,21.50
2022-09-09T15:19:52.277Z,21.40
2022-09-09T15:22:49.845Z,21.40
2022-09-09T15:25:47.308Z,21.30
2022-09-09T15:28:44.749Z,21.26
2022-09-09T15:31:42.198Z,21.20
2022-09-09T15:34:40.033Z,21.14
2022-09-09T15:37:37.568Z,21.00
2022-09-09T15:40:34.988Z,20.90
2022-09-09T15:43:32.415Z,20.88
2022-09-09T15:46:29.934Z,20.80
2022-09-09T15:49:27.443Z,20.70
2022-09-09T15:52:24.896Z,20.70
2022-09-09T15:55:23.226Z,20.60
2022-09-09T15:58:20.802Z,20.58
2022-09-09T16:01:20.187Z,20.50
2022-09-09T16:04:24.169Z,20.40
2022-09-09T16:07:21.646Z,20.30
2022-09-09T16:10:19.078Z,20.30
2022-09-09T16:13:16.532Z,20.20
2022-09-09T16:16:14.174Z,20.10
2022-09-09T16:19:11.608Z,19.96
2022-09-09T16:22:09.656Z,19.90
2022-09-09T16:25:07.117Z,19.80
2022-09-09T16:28:04.557Z,19.80
2022-09-09T16:31:02.445Z,19.70
2022-09-09T16:34:00.262Z,19.70
2022-09-09T16:36:57.878Z,19.66
2022-09-09T16:39:55.976Z,19.60
2022-09-09T16:42:53.461Z,19.60
2022-09-09T16:45:50.913Z,19.54
2022-09-09T16:48:48.366Z,19.50
2022-09-09T16:51:45.833Z,19.40
2022-09-09T16:54:43.326Z,19.30
2022-09-09T16:57:40.937Z,19.24
2022-09-09T17:00:38.362Z,19.10
2022-09-09T17:03:35.842Z,19.10
2022-09-09T17:06:34.168Z,19.00
2022-09-09T17:09:32.618Z,18.90
2022-09-09T17:12:30.072Z,18.84
2022-09-09T17:15:27.546Z,18.80
2022-09-09T17:18:26.166Z,18.70
2022-09-09T17:21:24.544Z,18.60
2022-09-09T17:24:22.933Z,18.50
2022-09-09T17:27:20.346Z,18.40
2022-09-09T17:30:17.908Z,18.30
2022-09-09T17:33:15.797Z,18.20
2022-09-09T17:36:13.285Z,18.02
2022-09-09T17:39:10.735Z,17.90
2022-09-09T17:42:09.054Z,17.80
2022-09-09T17:45:06.496Z,17.70
2022-09-09T17:48:05.258Z,17.70
2022-09-09T17:51:02.689Z,17.60
2022-09-09T17:54:00.512Z,17.50
2022-09-09T17:56:58.759Z,17.50
2022-09-09T17:59:56.211Z,17.40
2022-09-09T18:02:53.733Z,17.32
2022-09-09T18:05:51.189Z,17.30
2022-09-09T18:08:48.669Z,17.20
2022-09-09T18:11:46.106Z,17.20
2022-09-09T18:14:43.610Z,17.10
2022-09-09T18:17:44.129Z,17.10
2022-09-09T18:20:41.783Z,17.10
2022-09-09T18:23:39.224Z,17.04
2022-09-09T18:26:36.777Z,17.00
2022-09-09T18:29:34.833Z,17.00
2022-09-09T18:32:32.474Z,17.00
2022-09-09T18:35:30.100Z,16.90
2022-09-09T18:38:27.722Z,16.90
2022-09-09T18:41:25.190Z,16.90
2022-09-09T18:44:22.854Z,16.80
2022-09-09T18:47:22.009Z,16.80
2022-09-09T18:50:19.996Z,16.70
2022-09-09T18:53:17.761Z,16.70
2022-09-09T18:56:15.420Z,16.70
2022-09-09T18:59:13.216Z,16.70
2022-09-09T19:02:12.612Z,16.70
2022-09-09T19:05:10.388Z,16.70
2022-09-09T19:08:08.384Z,16.70
2022-09-09T19:11:06.584Z,16.70
2022-09-09T19:14:04.475Z,16.60
2022-09-09T19:17:02.250Z,16.60
2022-09-09T19:19:59.974Z,16.58
2022-09-09T19:22:57.783Z,16.50
2022-09-09T19:25:55.985Z,16.50
2022-09-09T19:28:53.660Z,16.50
2022-09-09T19:32:25.255Z,16.40
2022-09-09T19:35:09.263Z,16.40
2022-09-09T19:38:07.696Z,16.40
2022-09-09T19:41:05.943Z,16.40
2022-09-09T19:44:03.489Z,16.40
2022-09-09T19:47:00.979Z,16.32
2022-09-09T19:49:58.464Z,16.30
2022-09-09T19:52:56.038Z,16.30
2022-09-09T19:55:53.620Z,16.30
2022-09-09T19:58:51.290Z,16.30
2022-09-09T20:01:48.930Z,16.30
2022-09-09T20:04:48.821Z,16.24
2022-09-09T20:07:46.283Z,16.22
2022-09-09T20:10:44.444Z,16.20
2022-09-09T20:13:41.995Z,16.20
2022-09-09T20:16:39.461Z,16.18
2022-09-09T20:19:36.870Z,16.10
2022-09-09T20:22:34.304Z,16.10
2022-09-09T20:25:31.748Z,16.10
2022-09-09T20:28:29.629Z,16.10
2022-09-09T20:31:27.059Z,16.06
2022-09-09T20:34:27.392Z,16.06
2022-09-09T20:37:25.067Z,16.00
2022-09-09T20:40:22.488Z,16.00
2022-09-09T20:43:20.504Z,16.00
2022-09-09T20:46:19.078Z,16.00
2022-09-09T20:49:17.319Z,15.98
2022-09-09T20:52:15.337Z,15.98
2022-09-09T20:55:13.198Z,15.94
2022-09-09T20:58:11.026Z,15.90
2022-09-09T21:01:08.533Z,15.90
2022-09-09T21:04:05.976Z,15.90
2022-09-09T21:07:04.468Z,15.90
2022-09-09T21:10:02.260Z,15.90
2022-09-09T21:13:01.544Z,15.80
2022-09-09T21:15:58.993Z,15.80
2022-09-09T21:18:56.461Z,15.80
2022-09-09T21:21:53.927Z,15.80
2022-09-09T21:24:52.025Z,15.80
2022-09-09T21:27:49.452Z,15.80
2022-09-09T21:30:46.897Z,15.80
2022-09-09T21:33:44.346Z,15.72
2022-09-09T21:36:42.178Z,15.72
2022-09-09T21:39:39.615Z,15.70
2022-09-09T21:42:37.072Z,15.70
2022-09-09T21:45:34.513Z,15.70
2022-09-09T21:48:31.946Z,15.70
2022-09-09T21:51:29.365Z,15.70
2022-09-09T21:54:27.311Z,15.64
2022-09-09T21:57:25.143Z,15.60
2022-09-09T22:00:24.351Z,15.60
2022-09-09T22:03:21.784Z,15.60
2022-09-09T22:06:19.387Z,15.50
2022-09-09T22:09:16.821Z,15.50
2022-09-09T22:12:14.289Z,15.50
2022-09-09T22:15:11.718Z,15.50
2022-09-09T22:18:09.156Z,15.50
2022-09-09T22:21:06.619Z,15.50
2022-09-09T22:24:04.051Z,15.50
2022-09-09T22:27:01.985Z,15.50
2022-09-09T22:29:59.461Z,15.50
2022-09-09T22:32:56.922Z,15.50
2022-09-09T22:35:54.336Z,15.50
2022-09-09T22:38:51.895Z,15.50
2022-09-09T22:41:49.451Z,15.50
2022-09-09T22:44:46.935Z,15.50
2022-09-09T22:47:44.376Z,15.50
2022-09-09T22:50:42.797Z,15.50
2022-09-09T22:53:40.900Z,15.50
2022-09-09T22:56:38.341Z,15.50
2022-09-09T22:59:36.110Z,15.50
2022-09-09T23:02:36.436Z,15.50
2022-09-09T23:05:38.673Z,15.50
2022-09-09T23:08:36.665Z,15.50
2022-09-09T23:11:34.171Z,15.50
2022-09-09T23:14:33.954Z,15.50
2022-09-09T23:17:32.138Z,15.50
2022-09-09T23:20:29.621Z,15.50
2022-09-09T23:23:27.065Z,15.50
2022-09-09T23:26:25.403Z,15.50
2022-09-09T23:29:22.831Z,15.50
2022-09-09T23:32:20.237Z,15.46
2022-09-09T23:35:17.674Z,15.48
2022-09-09T23:38:15.959Z,15.48
2022-09-09T23:41:13.369Z,15.40
2022-09-09T23:44:12.945Z,15.40
2022-09-09T23:47:10.469Z,15.42
2022-09-09T23:50:08.976Z,15.42
2022-09-09T23:53:07.056Z,15.40
2022-09-09T23:56:05.351Z,15.40
2022-09-09T23:59:02.805Z,15.40
